createdAt,value
2023-08-29T00:01:08.438Z,4.03
2023-08-29T00:03:35.131Z,3.90
2023-08-29T00:06:03.202Z,4.57
2023-08-29T00:08:30.295Z,5.43
2023-08-29T00:10:57.762Z,4.53
2023-08-29T00:13:25.004Z,2.92
2023-08-29T00:15:51.860Z,3.03
2023-08-29T00:18:20.317Z,3.67
2023-08-29T00:20:46.824Z,4.30
2023-08-29T00:23:13.644Z,5.88
2023-08-29T00:25:40.455Z,4.38
2023-08-29T00:28:08.245Z,2.95
2023-08-29T00:30:37.991Z,4.35
2023-08-29T00:33:05.496Z,3.08
2023-08-29T00:35:32.311Z,6.75
2023-08-29T00:37:59.675Z,3.63
2023-08-29T00:40:31.713Z,2.95
2023-08-29T00:43:01.496Z,3.67
2023-08-29T00:45:34.181Z,3.92
2023-08-29T00:48:02.079Z,3.25
2023-08-29T00:50:29.198Z,5.80
2023-08-29T00:52:59.479Z,3.47
2023-08-29T00:55:27.723Z,4.72
2023-08-29T00:57:57.774Z,4.75
2023-08-29T01:00:26.189Z,5.43
2023-08-29T01:02:52.944Z,4.13
2023-08-29T01:05:21.619Z,4.22
2023-08-29T01:07:53.729Z,5.28
2023-08-29T01:10:34.496Z,6.95
2023-08-29T01:13:23.040Z,4.30
2023-08-29T01:15:52.788Z,6.10
2023-08-29T01:18:20.845Z,4.85
2023-08-29T01:20:50.404Z,5.78
2023-08-29T01:23:43.933Z,4.95
2023-08-29T01:26:14.654Z,5.40
2023-08-29T01:28:43.665Z,6.32
2023-08-29T01:31:12.033Z,4.18
2023-08-29T01:33:40.989Z,3.70
2023-08-29T01:36:08.029Z,4.88
2023-08-29T01:38:34.766Z,3.90
2023-08-29T01:41:01.395Z,3.70
2023-08-29T01:43:27.944Z,3.97
2023-08-29T01:45:54.559Z,3.45
2023-08-29T01:48:22.628Z,3.90
2023-08-29T01:50:49.595Z,4.07
2023-08-29T01:53:16.459Z,5.13
2023-08-29T01:55:44.246Z,4.60
2023-08-29T01:58:12.061Z,4.85
2023-08-29T02:00:38.992Z,4.10
2023-08-29T02:03:05.799Z,6.03
2023-08-29T02:05:32.436Z,4.22
2023-08-29T02:07:59.368Z,4.18
2023-08-29T02:10:31.302Z,4.97
2023-08-29T02:12:57.826Z,4.55
2023-08-29T02:15:24.366Z,3.97
2023-08-29T02:17:52.398Z,3.85
2023-08-29T02:20:18.970Z,4.93
2023-08-29T02:22:45.790Z,5.18
2023-08-29T02:25:12.751Z,5.57
2023-08-29T02:27:39.347Z,4.82
2023-08-29T02:30:06.661Z,4.85
2023-08-29T02:32:35.661Z,5.18
2023-08-29T02:35:04.602Z,5.45
2023-08-29T02:37:31.527Z,4.57
2023-08-29T02:39:58.104Z,4.82
2023-08-29T02:42:24.669Z,3.72
2023-08-29T02:44:51.179Z,5.03
2023-08-29T02:47:17.729Z,3.90
2023-08-29T02:49:44.264Z,4.05
2023-08-29T02:52:10.884Z,5.15
2023-08-29T02:54:37.505Z,5.15
2023-08-29T02:57:05.101Z,4.47
2023-08-29T02:59:31.771Z,5.38
2023-08-29T03:01:58.932Z,5.28
2023-08-29T03:04:25.516Z,8.55
2023-08-29T03:06:52.665Z,5.03
2023-08-29T03:09:19.546Z,6.03
2023-08-29T03:11:46.078Z,4.80
2023-08-29T03:14:12.655Z,6.38
2023-08-29T03:16:39.271Z,6.15
2023-08-29T03:19:06.118Z,7.43
2023-08-29T03:21:32.779Z,6.88
2023-08-29T03:23:59.378Z,6.38
2023-08-29T03:26:25.913Z,6.07
2023-08-29T03:28:52.425Z,6.63
2023-08-29T03:31:19.326Z,6.55
2023-08-29T03:33:46.546Z,12.30
2023-08-29T03:36:13.209Z,7.85
2023-08-29T03:38:40.994Z,6.32
2023-08-29T03:41:08.896Z,7.07
2023-08-29T03:43:36.805Z,8.82
2023-08-29T03:46:09.843Z,8.32
2023-08-29T03:48:37.777Z,10.23
2023-08-29T03:51:08.060Z,6.47
2023-08-29T03:53:36.022Z,7.13
2023-08-29T03:56:04.994Z,6.20
2023-08-29T03:58:32.402Z,8.40
2023-08-29T04:01:00.019Z,10.38
2023-08-29T04:03:26.995Z,9.07
2023-08-29T04:05:53.851Z,8.63
2023-08-29T04:08:20.455Z,7.85
2023-08-29T04:10:47.589Z,7.40
2023-08-29T04:13:14.407Z,7.80
2023-08-29T04:15:41.470Z,10.60
2023-08-29T04:18:11.534Z,8.25
2023-08-29T04:20:38.481Z,6.47
2023-08-29T04:23:06.486Z,11.68
2023-08-29T04:25:35.515Z,7.65
2023-08-29T04:28:02.109Z,6.80
2023-08-29T04:30:28.976Z,8.68
2023-08-29T04:32:56.378Z,8.38
2023-08-29T04:35:22.905Z,6.15
2023-08-29T04:37:50.149Z,9.77
2023-08-29T04:40:18.483Z,9.75
2023-08-29T04:42:48.669Z,10.52
2023-08-29T04:45:15.274Z,10.85
2023-08-29T04:47:42.125Z,7.20
2023-08-29T04:50:09.196Z,11.23
2023-08-29T04:52:35.988Z,7.00
2023-08-29T04:55:03.048Z,5.82
2023-08-29T04:57:29.676Z,6.15
2023-08-29T04:59:56.332Z,9.30
2023-08-29T05:02:22.993Z,9.40
2023-08-29T05:04:49.718Z,9.45
2023-08-29T05:07:16.294Z,8.00
2023-08-29T05:09:43.130Z,6.20
2023-08-29T05:12:12.013Z,10.13
2023-08-29T05:14:39.945Z,6.70
2023-08-29T05:17:09.332Z,8.30
2023-08-29T05:19:35.918Z,6.60
2023-08-29T05:22:02.668Z,8.02
2023-08-29T05:24:29.794Z,7.13
2023-08-29T05:26:56.361Z,6.68
2023-08-29T05:29:22.963Z,9.43
2023-08-29T05:31:49.494Z,7.90
2023-08-29T05:34:16.168Z,6.43
2023-08-29T05:36:42.853Z,7.88
2023-08-29T05:39:09.388Z,8.45
2023-08-29T05:41:36.252Z,7.00
2023-08-29T05:44:02.769Z,9.82
2023-08-29T05:46:29.378Z,7.00
2023-08-29T05:48:56.023Z,6.18
2023-08-29T05:51:22.749Z,8.15
2023-08-29T05:53:49.430Z,8.27
2023-08-29T05:56:15.961Z,10.15
2023-08-29T05:58:42.477Z,11.32
2023-08-29T06:01:10.256Z,9.45
2023-08-29T06:03:37.558Z,9.70
2023-08-29T06:06:04.699Z,9.30
2023-08-29T06:08:34.460Z,9.98
2023-08-29T06:11:01.761Z,9.15
2023-08-29T06:13:28.457Z,7.68
2023-08-29T06:15:55.230Z,10.38
2023-08-29T06:18:22.013Z,14.18
2023-08-29T06:20:48.599Z,10.63
2023-08-29T06:23:15.321Z,11.68
2023-08-29T06:25:42.553Z,15.63
2023-08-29T06:28:09.376Z,16.25
2023-08-29T06:30:37.291Z,12.93
2023-08-29T06:33:07.521Z,19.95
2023-08-29T06:35:41.470Z,15.38
2023-08-29T06:40:36.157Z,19.55
2023-08-29T06:43:02.812Z,24.40
2023-08-29T06:45:29.534Z,16.80
2023-08-29T06:47:56.158Z,15.98
2023-08-29T06:50:22.846Z,14.73
2023-08-29T06:52:49.390Z,14.88
2023-08-29T06:55:17.234Z,21.83
2023-08-29T06:57:43.737Z,21.42
2023-08-29T07:00:12.011Z,17.33
2023-08-29T07:02:38.988Z,17.92
2023-08-29T07:05:06.257Z,16.08
2023-08-29T07:07:32.828Z,20.45
2023-08-29T07:09:59.433Z,12.77
2023-08-29T07:12:26.060Z,14.82
2023-08-29T07:14:52.597Z,17.00
2023-08-29T07:17:19.154Z,20.33
2023-08-29T07:19:45.820Z,14.38
2023-08-29T07:22:23.537Z,14.38
2023-08-29T07:24:52.440Z,15.18
2023-08-29T07:27:19.557Z,19.67
2023-08-29T07:29:46.225Z,15.07
2023-08-29T07:32:12.845Z,14.85
2023-08-29T07:34:41.157Z,16.67
2023-08-29T07:37:08.193Z,13.20
2023-08-29T07:39:35.613Z,15.00
2023-08-29T07:42:02.680Z,15.23
2023-08-29T07:44:30.556Z,14.15
2023-08-29T07:47:13.509Z,13.80
2023-08-29T07:49:41.293Z,15.60
2023-08-29T07:52:08.065Z,12.45
2023-08-29T07:54:34.766Z,14.50
2023-08-29T07:57:01.470Z,14.50
2023-08-29T07:59:28.248Z,11.52
2023-08-29T08:01:55.364Z,12.57
2023-08-29T08:04:22.320Z,11.52
2023-08-29T08:06:49.114Z,11.13
2023-08-29T08:09:16.461Z,13.38
2023-08-29T08:11:43.042Z,12.88
2023-08-29T08:14:09.639Z,11.98
2023-08-29T08:16:36.202Z,13.05
2023-08-29T08:19:02.722Z,16.80
2023-08-29T08:21:29.224Z,14.63
2023-08-29T08:23:56.237Z,12.60
2023-08-29T08:26:23.009Z,10.40
2023-08-29T08:28:50.240Z,11.45
2023-08-29T08:31:16.984Z,12.00
2023-08-29T08:33:44.364Z,14.75
2023-08-29T08:36:11.173Z,13.85
2023-08-29T08:38:37.704Z,15.27
2023-08-29T08:41:04.911Z,11.40
2023-08-29T08:43:32.646Z,12.50
2023-08-29T08:46:00.029Z,14.85
2023-08-29T08:48:26.729Z,11.90
2023-08-29T08:50:53.755Z,10.88
2023-08-29T08:53:23.663Z,10.98
2023-08-29T08:55:51.543Z,12.65
2023-08-29T08:58:19.542Z,15.90
2023-08-29T09:00:46.212Z,15.38
2023-08-29T09:03:15.813Z,16.13
2023-08-29T09:05:43.205Z,15.32
2023-08-29T09:08:10.095Z,13.82
2023-08-29T09:10:41.239Z,13.70
2023-08-29T09:13:16.643Z,10.98
2023-08-29T09:15:43.788Z,12.57
2023-08-29T09:18:14.876Z,10.43
2023-08-29T09:20:44.216Z,9.57
2023-08-29T09:23:24.527Z,8.27
2023-08-29T09:25:58.724Z,7.85
2023-08-29T09:28:30.396Z,9.02
2023-08-29T09:31:05.018Z,12.63
2023-08-29T09:33:31.977Z,6.75
2023-08-29T09:36:01.551Z,11.98
2023-08-29T09:38:32.857Z,7.32
2023-08-29T09:40:59.971Z,7.97
2023-08-29T09:43:28.780Z,7.68
2023-08-29T09:45:56.383Z,7.53
2023-08-29T09:48:24.022Z,10.95
2023-08-29T09:50:52.028Z,7.60
2023-08-29T09:53:20.476Z,7.50
2023-08-29T09:55:52.840Z,5.30
2023-08-29T09:58:24.919Z,6.43
2023-08-29T10:00:52.762Z,8.52
2023-08-29T10:03:19.835Z,4.95
2023-08-29T10:05:46.875Z,5.68
2023-08-29T10:08:19.381Z,5.65
2023-08-29T10:10:47.418Z,6.53
2023-08-29T10:13:16.680Z,4.20
2023-08-29T10:15:45.452Z,4.60
2023-08-29T10:18:12.851Z,3.70
2023-08-29T10:20:44.480Z,4.50
2023-08-29T10:23:13.443Z,11.05
2023-08-29T10:25:40.429Z,9.80
2023-08-29T10:28:12.298Z,5.18
2023-08-29T10:30:46.294Z,3.45
2023-08-29T10:33:13.529Z,4.45
2023-08-29T10:35:40.138Z,3.55
2023-08-29T10:38:16.667Z,3.15
2023-08-29T10:40:44.753Z,6.00
2023-08-29T10:43:23.165Z,3.88
2023-08-29T10:45:53.606Z,4.82
2023-08-29T10:48:22.151Z,5.80
2023-08-29T10:51:23.597Z,5.55
2023-08-29T10:53:55.514Z,10.43
2023-08-29T10:56:28.306Z,4.15
2023-08-29T10:58:56.123Z,4.38
2023-08-29T11:01:25.430Z,4.93
2023-08-29T11:03:52.621Z,7.13
2023-08-29T11:06:20.845Z,7.07
2023-08-29T11:08:47.867Z,3.97
2023-08-29T11:11:17.711Z,9.05
2023-08-29T11:14:07.576Z,4.03
2023-08-29T11:16:36.286Z,4.35
2023-08-29T11:19:10.860Z,4.97
2023-08-29T11:21:37.715Z,4.28
2023-08-29T11:26:41.972Z,3.73
2023-08-29T11:29:08.816Z,7.00
2023-08-29T11:31:46.323Z,4.18
2023-08-29T11:34:19.071Z,4.80
2023-08-29T11:36:51.884Z,8.82
2023-08-29T11:39:22.623Z,3.83
2023-08-29T11:42:20.035Z,4.85
2023-08-29T11:45:35.250Z,5.85
2023-08-29T11:47:24.701Z,4.72
2023-08-29T11:49:52.770Z,4.05
2023-08-29T11:52:19.798Z,4.88
2023-08-29T11:54:54.155Z,3.67
2023-08-29T11:57:20.913Z,3.50
2023-08-29T11:59:48.861Z,3.58
2023-08-29T12:02:19.343Z,3.80
2023-08-29T12:04:48.829Z,4.00
2023-08-29T12:07:16.945Z,4.07
2023-08-29T12:09:45.713Z,3.15
2023-08-29T12:12:29.267Z,3.25
2023-08-29T12:14:56.159Z,3.90
2023-08-29T12:17:24.143Z,2.42
2023-08-29T12:19:50.894Z,3.95
2023-08-29T12:22:20.759Z,2.53
2023-08-29T12:24:56.873Z,5.00
2023-08-29T12:27:23.447Z,2.33
2023-08-29T12:29:49.946Z,2.30
2023-08-29T12:32:17.772Z,2.53
2023-08-29T12:34:45.710Z,3.42
2023-08-29T12:37:15.362Z,4.30
2023-08-29T12:39:41.886Z,1.95
2023-08-29T12:42:08.490Z,3.03
2023-08-29T12:44:35.101Z,3.38
2023-08-29T12:47:01.614Z,5.95
2023-08-29T12:49:28.151Z,3.65
2023-08-29T12:51:54.760Z,3.28
2023-08-29T12:54:21.252Z,3.45
2023-08-29T12:56:47.752Z,3.22
2023-08-29T12:59:14.336Z,4.55
2023-08-29T13:01:40.991Z,5.63
2023-08-29T13:04:07.632Z,2.95
2023-08-29T13:06:34.174Z,5.53
2023-08-29T13:09:00.725Z,3.28
2023-08-29T13:11:27.227Z,2.38
2023-08-29T13:13:53.746Z,5.95
2023-08-29T13:16:20.318Z,3.08
2023-08-29T13:18:46.874Z,4.90
2023-08-29T13:21:13.367Z,3.75
2023-08-29T13:23:39.881Z,2.65
2023-08-29T13:26:06.404Z,3.25
2023-08-29T13:28:32.920Z,3.25
2023-08-29T13:31:00.036Z,5.25
2023-08-29T13:33:26.639Z,5.43
2023-08-29T13:35:53.195Z,8.02
2023-08-29T13:38:19.711Z,7.53
2023-08-29T13:40:46.818Z,5.72
2023-08-29T13:43:13.399Z,6.38
2023-08-29T13:45:39.978Z,5.95
2023-08-29T13:48:07.203Z,5.30
2023-08-29T13:50:34.145Z,5.75
2023-08-29T13:53:00.753Z,6.47
2023-08-29T13:55:27.590Z,4.10
2023-08-29T13:57:54.193Z,6.97
2023-08-29T14:00:21.625Z,5.50
2023-08-29T14:02:48.521Z,6.70
2023-08-29T14:05:32.473Z,4.70
2023-08-29T14:07:59.522Z,4.35
2023-08-29T14:10:26.173Z,4.18
2023-08-29T14:12:53.275Z,8.95
2023-08-29T14:15:19.836Z,6.13
2023-08-29T14:17:46.483Z,7.38
2023-08-29T14:20:13.074Z,4.55
2023-08-29T14:22:39.747Z,5.53
2023-08-29T14:25:06.645Z,4.03
2023-08-29T14:27:33.292Z,3.00
2023-08-29T14:29:59.833Z,4.10
2023-08-29T14:32:27.249Z,6.57
2023-08-29T14:34:53.791Z,4.05
2023-08-29T14:37:20.292Z,4.25
2023-08-29T14:39:48.016Z,2.60
2023-08-29T14:42:14.896Z,2.95
2023-08-29T14:44:41.436Z,5.72
2023-08-29T14:47:08.598Z,2.47
2023-08-29T14:49:36.626Z,2.92
2023-08-29T14:52:03.735Z,3.88
2023-08-29T14:54:30.351Z,4.05
2023-08-29T14:56:56.852Z,3.60
2023-08-29T14:59:23.437Z,3.53
2023-08-29T15:01:49.977Z,2.47
2023-08-29T15:04:18.262Z,2.83
2023-08-29T15:06:44.897Z,1.83
2023-08-29T15:09:11.534Z,2.47
2023-08-29T15:11:38.409Z,1.60
2023-08-29T15:14:05.351Z,1.90
2023-08-29T15:16:31.961Z,1.63
2023-08-29T15:18:58.683Z,2.72
2023-08-29T15:21:25.373Z,1.95
2023-08-29T15:23:51.953Z,2.05
2023-08-29T15:26:18.554Z,3.05
2023-08-29T15:28:45.089Z,2.88
2023-08-29T15:31:11.745Z,2.70
2023-08-29T15:33:39.870Z,3.30
2023-08-29T15:36:06.546Z,1.85
2023-08-29T15:38:33.093Z,1.70
2023-08-29T15:41:00.105Z,2.17
2023-08-29T15:43:26.656Z,2.15
2023-08-29T15:45:53.491Z,5.90
2023-08-29T15:48:20.215Z,4.30
2023-08-29T15:50:47.487Z,2.58
2023-08-29T15:53:15.060Z,5.90
2023-08-29T15:55:42.850Z,3.83
2023-08-29T15:58:09.862Z,2.25
2023-08-29T16:00:38.031Z,3.10
2023-08-29T16:03:05.193Z,3.85
2023-08-29T16:05:31.808Z,2.65
2023-08-29T16:07:58.402Z,3.17
2023-08-29T16:10:25.074Z,2.50
2023-08-29T16:12:51.594Z,1.92
2023-08-29T16:15:18.271Z,1.95
2023-08-29T16:17:44.889Z,3.45
2023-08-29T16:20:11.850Z,4.10
2023-08-29T16:22:39.109Z,2.45
2023-08-29T16:25:06.629Z,3.22
2023-08-29T16:27:36.373Z,2.97
2023-08-29T16:30:08.444Z,2.78
2023-08-29T16:32:35.935Z,2.97
2023-08-29T16:35:02.876Z,2.72
2023-08-29T16:37:29.780Z,2.70
2023-08-29T16:39:56.630Z,2.40
2023-08-29T16:42:26.643Z,2.10
2023-08-29T16:44:53.269Z,2.67
2023-08-29T16:47:20.120Z,2.13
2023-08-29T16:49:46.701Z,3.22
2023-08-29T16:52:13.308Z,2.58
2023-08-29T16:54:39.813Z,3.08
2023-08-29T16:57:06.454Z,2.28
2023-08-29T16:59:59.096Z,2.58
2023-08-29T17:02:26.524Z,3.63
2023-08-29T17:04:55.135Z,2.63
2023-08-29T17:07:22.447Z,2.40
2023-08-29T17:09:49.045Z,2.60
2023-08-29T17:12:19.977Z,2.40
2023-08-29T17:14:46.700Z,2.17
2023-08-29T17:17:13.714Z,3.35
2023-08-29T17:19:41.066Z,2.10
2023-08-29T17:22:07.666Z,4.53
2023-08-29T17:24:34.683Z,3.13
2023-08-29T17:27:01.457Z,3.28
2023-08-29T17:29:28.057Z,3.35
2023-08-29T17:31:54.688Z,2.33
2023-08-29T17:34:22.710Z,2.58
2023-08-29T17:36:49.966Z,2.22
2023-08-29T17:39:16.507Z,3.00
2023-08-29T17:41:43.260Z,1.83
2023-08-29T17:44:09.873Z,2.47
2023-08-29T17:46:36.457Z,2.95
2023-08-29T17:49:03.768Z,3.20
2023-08-29T17:51:30.269Z,2.63
2023-08-29T17:53:56.796Z,2.47
2023-08-29T17:56:23.575Z,2.28
2023-08-29T17:58:52.011Z,2.80
2023-08-29T18:01:19.086Z,2.60
2023-08-29T18:03:46.187Z,2.38
2023-08-29T18:06:24.677Z,3.28
2023-08-29T18:08:53.772Z,4.43
2023-08-29T18:11:20.854Z,2.63
2023-08-29T18:13:47.468Z,3.05
2023-08-29T18:16:14.131Z,3.00
2023-08-29T18:18:40.757Z,3.97
2023-08-29T18:21:08.624Z,3.75
2023-08-29T18:23:36.098Z,3.70
2023-08-29T18:26:07.040Z,3.38
2023-08-29T18:28:34.466Z,2.92
2023-08-29T18:31:01.847Z,4.72
2023-08-29T18:33:28.716Z,5.50
2023-08-29T18:35:55.325Z,3.35
2023-08-29T18:38:22.274Z,5.10
2023-08-29T18:40:48.824Z,5.40
2023-08-29T18:43:16.077Z,3.15
2023-08-29T18:45:43.530Z,2.45
2023-08-29T18:48:10.339Z,2.78
2023-08-29T18:50:37.270Z,4.07
2023-08-29T18:53:04.794Z,6.18
2023-08-29T18:55:31.332Z,6.82
2023-08-29T18:58:00.884Z,5.55
2023-08-29T19:00:27.993Z,3.42
2023-08-29T19:02:55.901Z,5.03
2023-08-29T19:05:22.897Z,5.80
2023-08-29T19:07:49.856Z,5.78
2023-08-29T19:10:16.613Z,6.43
2023-08-29T19:12:45.459Z,6.22
2023-08-29T19:15:12.067Z,5.68
2023-08-29T19:17:40.184Z,4.68
2023-08-29T19:20:07.274Z,5.78
2023-08-29T19:22:34.354Z,7.82
2023-08-29T19:25:00.884Z,3.97
2023-08-29T19:27:29.078Z,5.65
2023-08-29T19:29:55.770Z,5.18
2023-08-29T19:32:22.751Z,4.85
2023-08-29T19:34:49.383Z,6.47
2023-08-29T19:37:17.012Z,4.20
2023-08-29T19:39:43.606Z,2.85
2023-08-29T19:42:10.146Z,4.75
2023-08-29T19:44:36.738Z,4.78
2023-08-29T19:47:06.428Z,3.28
2023-08-29T19:49:42.896Z,3.58
2023-08-29T19:52:09.553Z,3.67
2023-08-29T19:54:36.171Z,4.88
2023-08-29T19:57:03.033Z,3.25
2023-08-29T19:59:30.752Z,4.47
2023-08-29T20:01:57.481Z,4.53
2023-08-29T20:04:24.013Z,4.85
2023-08-29T20:06:50.608Z,7.65
2023-08-29T20:09:17.204Z,9.52
2023-08-29T20:11:45.142Z,4.80
2023-08-29T20:14:13.657Z,6.50
2023-08-29T20:16:40.272Z,3.90
2023-08-29T20:19:06.972Z,5.78
2023-08-29T20:21:33.592Z,6.60
2023-08-29T20:24:02.895Z,4.75
2023-08-29T20:26:31.242Z,5.63
2023-08-29T20:29:00.195Z,6.50
2023-08-29T20:31:26.820Z,8.02
2023-08-29T20:33:53.425Z,4.82
2023-08-29T20:36:20.093Z,5.90
2023-08-29T20:38:46.613Z,6.85
2023-08-29T20:41:13.131Z,5.95
2023-08-29T20:43:39.678Z,6.40
2023-08-29T20:46:06.237Z,5.25
2023-08-29T20:48:32.769Z,3.03
2023-08-29T20:51:04.334Z,5.88
2023-08-29T20:53:33.126Z,4.95
2023-08-29T20:55:59.799Z,4.53
2023-08-29T20:58:26.457Z,6.65
2023-08-29T21:01:00.774Z,4.43
2023-08-29T21:03:30.164Z,5.10
2023-08-29T21:05:58.217Z,5.07
2023-08-29T21:08:26.638Z,4.95
2023-08-29T21:10:54.063Z,4.72
2023-08-29T21:13:21.440Z,4.20
2023-08-29T21:15:48.638Z,3.35
2023-08-29T21:18:18.763Z,4.25
2023-08-29T21:20:54.534Z,3.28
2023-08-29T21:23:21.532Z,8.55
2023-08-29T21:25:48.520Z,6.35
2023-08-29T21:28:21.337Z,4.03
2023-08-29T21:30:47.914Z,3.35
2023-08-29T21:33:14.607Z,5.75
2023-08-29T21:35:42.479Z,4.38
2023-08-29T21:38:10.753Z,6.13
2023-08-29T21:40:39.057Z,9.15
2023-08-29T21:43:10.203Z,4.45
2023-08-29T21:45:38.553Z,3.97
2023-08-29T21:48:07.109Z,5.25
2023-08-29T21:50:41.403Z,5.72
2023-08-29T21:53:11.785Z,4.15
2023-08-29T21:55:40.094Z,3.58
2023-08-29T21:58:08.292Z,5.68
2023-08-29T22:00:35.347Z,3.75
2023-08-29T22:03:02.926Z,3.40
2023-08-29T22:05:31.916Z,3.65
2023-08-29T22:07:59.364Z,4.82
2023-08-29T22:10:26.572Z,5.72
2023-08-29T22:12:53.147Z,4.35
2023-08-29T22:15:20.734Z,4.90
2023-08-29T22:17:47.666Z,4.35
2023-08-29T22:20:14.494Z,6.65
2023-08-29T22:22:43.913Z,5.43
2023-08-29T22:25:10.963Z,4.00
2023-08-29T22:27:37.750Z,5.90
2023-08-29T22:30:06.071Z,3.30
2023-08-29T22:32:33.532Z,3.95
2023-08-29T22:35:00.964Z,5.55
2023-08-29T22:37:27.538Z,4.75
2023-08-29T22:39:54.633Z,6.15
2023-08-29T22:42:21.611Z,7.65
2023-08-29T22:44:48.276Z,3.42
2023-08-29T22:47:15.130Z,5.28
2023-08-29T22:49:42.246Z,5.82
2023-08-29T22:52:09.639Z,4.25
2023-08-29T22:54:36.995Z,4.55
2023-08-29T22:57:03.673Z,4.00
2023-08-29T22:59:30.611Z,7.47
2023-08-29T23:01:58.717Z,3.13
2023-08-29T23:04:28.226Z,5.45
2023-08-29T23:07:05.536Z,8.93
2023-08-29T23:09:32.798Z,6.75
2023-08-29T23:12:00.252Z,5.75
2023-08-29T23:14:28.199Z,3.70
2023-08-29T23:16:55.025Z,3.95
2023-08-29T23:19:24.568Z,4.85
2023-08-29T23:21:51.942Z,5.10
2023-08-29T23:24:18.637Z,3.92
2023-08-29T23:26:45.209Z,5.70
2023-08-29T23:29:12.294Z,3.53
2023-08-29T23:31:40.876Z,4.13
2023-08-29T23:34:07.546Z,6.00
2023-08-29T23:36:35.071Z,4.93
2023-08-29T23:39:02.077Z,5.15
2023-08-29T23:41:29.049Z,4.20
2023-08-29T23:43:55.785Z,4.60
2023-08-29T23:46:22.458Z,4.22
2023-08-29T23:48:49.084Z,3.90
2023-08-29T23:51:15.900Z,4.32
2023-08-29T23:53:42.542Z,4.32
2023-08-29T23:56:09.145Z,5.35
2023-08-29T23:58:35.685Z,3.92
